sensor_id;sensor_type;location;lat;lon;timestamp;P1;durP1;ratioP1;P2;durP2;ratioP2
77417;SDS011;66490;51.484;0.026;2023-06-22T00:02:14;8.30;;;4.70;;
77417;SDS011;66490;51.484;0.026;2023-06-22T00:04:58;9.48;;;4.90;;
77417;SDS011;66490;51.484;0.026;2023-06-22T00:07:42;9.67;;;5.10;;
77417;SDS011;66490;51.484;0.026;2023-06-22T00:10:27;9.43;;;4.95;;
77417;SDS011;66490;51.484;0.026;2023-06-22T00:13:11;10.88;;;4.80;;
77417;SDS011;66490;51.484;0.026;2023-06-22T00:15:55;9.27;;;4.47;;
77417;SDS011;66490;51.484;0.026;2023-06-22T00:18:39;10.43;;;5.43;;
77417;SDS011;66490;51.484;0.026;2023-06-22T00:21:23;11.43;;;5.20;;
77417;SDS011;66490;51.484;0.026;2023-06-22T00:24:07;10.73;;;5.00;;
77417;SDS011;66490;51.484;0.026;2023-06-22T00:26:51;9.25;;;4.95;;
77417;SDS011;66490;51.484;0.026;2023-06-22T00:29:35;9.07;;;5.25;;
77417;SDS011;66490;51.484;0.026;2023-06-22T00:32:20;11.82;;;5.30;;
77417;SDS011;66490;51.484;0.026;2023-06-22T00:35:04;12.90;;;4.77;;
77417;SDS011;66490;51.484;0.026;2023-06-22T00:37:48;12.00;;;5.80;;
77417;SDS011;66490;51.484;0.026;2023-06-22T00:40:32;12.82;;;5.82;;
77417;SDS011;66490;51.484;0.026;2023-06-22T00:43:17;8.77;;;5.40;;
77417;SDS011;66490;51.484;0.026;2023-06-22T00:46:01;11.48;;;5.88;;
77417;SDS011;66490;51.484;0.026;2023-06-22T00:48:45;10.63;;;5.63;;
77417;SDS011;66490;51.484;0.026;2023-06-22T00:51:29;9.30;;;5.57;;
77417;SDS011;66490;51.484;0.026;2023-06-22T00:54:13;11.20;;;5.75;;
77417;SDS011;66490;51.484;0.026;2023-06-22T00:56:57;12.88;;;5.07;;
77417;SDS011;66490;51.484;0.026;2023-06-22T00:59:45;12.93;;;6.47;;
77417;SDS011;66490;51.484;0.026;2023-06-22T01:02:29;10.00;;;5.67;;
77417;SDS011;66490;51.484;0.026;2023-06-22T01:05:14;11.18;;;5.97;;
77417;SDS011;66490;51.484;0.026;2023-06-22T01:10:53;11.05;;;5.32;;
77417;SDS011;66490;51.484;0.026;2023-06-22T01:13:57;9.68;;;6.25;;
77417;SDS011;66490;51.484;0.026;2023-06-22T01:16:43;10.77;;;5.67;;
77417;SDS011;66490;51.484;0.026;2023-06-22T01:19:39;10.30;;;5.68;;
77417;SDS011;66490;51.484;0.026;2023-06-22T01:22:26;11.68;;;6.07;;
77417;SDS011;66490;51.484;0.026;2023-06-22T01:25:19;11.98;;;5.78;;
77417;SDS011;66490;51.484;0.026;2023-06-22T01:28:12;10.80;;;5.70;;
77417;SDS011;66490;51.484;0.026;2023-06-22T01:31:00;9.67;;;5.40;;
77417;SDS011;66490;51.484;0.026;2023-06-22T01:33:57;11.88;;;6.03;;
77417;SDS011;66490;51.484;0.026;2023-06-22T01:36:42;10.32;;;5.57;;
77417;SDS011;66490;51.484;0.026;2023-06-22T01:39:26;12.13;;;6.55;;
77417;SDS011;66490;51.484;0.026;2023-06-22T01:42:11;10.32;;;6.07;;
77417;SDS011;66490;51.484;0.026;2023-06-22T01:44:55;10.23;;;5.57;;
77417;SDS011;66490;51.484;0.026;2023-06-22T01:47:43;9.65;;;6.00;;
77417;SDS011;66490;51.484;0.026;2023-06-22T01:50:28;11.32;;;6.25;;
77417;SDS011;66490;51.484;0.026;2023-06-22T01:53:12;12.90;;;5.50;;
77417;SDS011;66490;51.484;0.026;2023-06-22T01:55:56;12.02;;;6.00;;
77417;SDS011;66490;51.484;0.026;2023-06-22T01:58:42;11.17;;;6.40;;
77417;SDS011;66490;51.484;0.026;2023-06-22T02:01:31;12.18;;;5.82;;
77417;SDS011;66490;51.484;0.026;2023-06-22T02:04:24;11.60;;;5.72;;
77417;SDS011;66490;51.484;0.026;2023-06-22T02:07:09;10.20;;;6.03;;
77417;SDS011;66490;51.484;0.026;2023-06-22T02:09:56;13.15;;;7.18;;
77417;SDS011;66490;51.484;0.026;2023-06-22T02:12:40;16.43;;;6.37;;
77417;SDS011;66490;51.484;0.026;2023-06-22T02:15:25;11.27;;;6.10;;
77417;SDS011;66490;51.484;0.026;2023-06-22T02:18:09;11.85;;;6.30;;
77417;SDS011;66490;51.484;0.026;2023-06-22T02:20:53;10.80;;;5.85;;
77417;SDS011;66490;51.484;0.026;2023-06-22T02:23:37;10.18;;;6.10;;
77417;SDS011;66490;51.484;0.026;2023-06-22T02:26:21;12.30;;;6.33;;
77417;SDS011;66490;51.484;0.026;2023-06-22T02:29:06;13.85;;;6.10;;
77417;SDS011;66490;51.484;0.026;2023-06-22T02:31:50;12.00;;;6.57;;
77417;SDS011;66490;51.484;0.026;2023-06-22T02:34:34;12.18;;;6.00;;
77417;SDS011;66490;51.484;0.026;2023-06-22T02:37:18;13.30;;;7.70;;
77417;SDS011;66490;51.484;0.026;2023-06-22T02:40:02;12.87;;;6.03;;
77417;SDS011;66490;51.484;0.026;2023-06-22T02:42:47;12.10;;;6.78;;
77417;SDS011;66490;51.484;0.026;2023-06-22T02:45:31;11.80;;;6.63;;
77417;SDS011;66490;51.484;0.026;2023-06-22T02:48:16;12.18;;;6.90;;
77417;SDS011;66490;51.484;0.026;2023-06-22T02:51:00;13.00;;;6.57;;
77417;SDS011;66490;51.484;0.026;2023-06-22T02:53:44;11.40;;;6.27;;
77417;SDS011;66490;51.484;0.026;2023-06-22T02:56:29;13.43;;;5.85;;
77417;SDS011;66490;51.484;0.026;2023-06-22T02:59:14;10.88;;;6.35;;
77417;SDS011;66490;51.484;0.026;2023-06-22T03:01:58;11.95;;;5.97;;
77417;SDS011;66490;51.484;0.026;2023-06-22T03:04:42;14.65;;;7.18;;
77417;SDS011;66490;51.484;0.026;2023-06-22T03:07:27;11.33;;;6.17;;
77417;SDS011;66490;51.484;0.026;2023-06-22T03:10:14;15.10;;;8.13;;
77417;SDS011;66490;51.484;0.026;2023-06-22T03:12:58;11.27;;;6.47;;
77417;SDS011;66490;51.484;0.026;2023-06-22T03:15:42;11.05;;;6.28;;
77417;SDS011;66490;51.484;0.026;2023-06-22T03:18:26;12.27;;;6.38;;
77417;SDS011;66490;51.484;0.026;2023-06-22T03:21:10;11.03;;;6.90;;
77417;SDS011;66490;51.484;0.026;2023-06-22T03:23:55;10.50;;;6.63;;
77417;SDS011;66490;51.484;0.026;2023-06-22T03:26:39;15.63;;;7.40;;
77417;SDS011;66490;51.484;0.026;2023-06-22T03:29:23;11.52;;;6.72;;
77417;SDS011;66490;51.484;0.026;2023-06-22T03:32:07;11.07;;;6.60;;
77417;SDS011;66490;51.484;0.026;2023-06-22T03:34:51;10.67;;;6.63;;
77417;SDS011;66490;51.484;0.026;2023-06-22T03:37:37;13.95;;;7.40;;
77417;SDS011;66490;51.484;0.026;2023-06-22T03:40:21;12.05;;;6.85;;
77417;SDS011;66490;51.484;0.026;2023-06-22T03:43:05;12.75;;;6.53;;
77417;SDS011;66490;51.484;0.026;2023-06-22T03:45:49;13.68;;;6.50;;
77417;SDS011;66490;51.484;0.026;2023-06-22T03:48:33;14.03;;;6.77;;
77417;SDS011;66490;51.484;0.026;2023-06-22T03:51:17;13.45;;;6.63;;
77417;SDS011;66490;51.484;0.026;2023-06-22T03:54:01;13.43;;;6.80;;
77417;SDS011;66490;51.484;0.026;2023-06-22T03:56:47;17.70;;;7.88;;
77417;SDS011;66490;51.484;0.026;2023-06-22T03:59:31;13.07;;;7.57;;
77417;SDS011;66490;51.484;0.026;2023-06-22T04:02:16;12.57;;;6.67;;
77417;SDS011;66490;51.484;0.026;2023-06-22T04:05:00;14.00;;;6.88;;
77417;SDS011;66490;51.484;0.026;2023-06-22T04:07:44;14.32;;;7.25;;
77417;SDS011;66490;51.484;0.026;2023-06-22T04:10:28;13.43;;;6.60;;
77417;SDS011;66490;51.484;0.026;2023-06-22T04:13:12;13.13;;;7.45;;
77417;SDS011;66490;51.484;0.026;2023-06-22T04:15:56;12.77;;;6.87;;
77417;SDS011;66490;51.484;0.026;2023-06-22T04:18:40;13.40;;;7.05;;
77417;SDS011;66490;51.484;0.026;2023-06-22T04:21:25;14.35;;;7.65;;
77417;SDS011;66490;51.484;0.026;2023-06-22T04:24:10;13.73;;;6.70;;
77417;SDS011;66490;51.484;0.026;2023-06-22T04:26:54;13.13;;;7.50;;
77417;SDS011;66490;51.484;0.026;2023-06-22T04:29:38;13.40;;;6.57;;
77417;SDS011;66490;51.484;0.026;2023-06-22T04:32:32;13.55;;;7.18;;
77417;SDS011;66490;51.484;0.026;2023-06-22T04:35:16;13.55;;;7.60;;
77417;SDS011;66490;51.484;0.026;2023-06-22T04:38:00;13.73;;;7.68;;
77417;SDS011;66490;51.484;0.026;2023-06-22T04:40:44;17.58;;;7.70;;
77417;SDS011;66490;51.484;0.026;2023-06-22T04:43:28;11.80;;;7.33;;
77417;SDS011;66490;51.484;0.026;2023-06-22T04:46:13;15.00;;;7.22;;
77417;SDS011;66490;51.484;0.026;2023-06-22T04:48:57;14.48;;;7.00;;
77417;SDS011;66490;51.484;0.026;2023-06-22T04:51:42;14.77;;;7.13;;
77417;SDS011;66490;51.484;0.026;2023-06-22T04:54:26;14.13;;;7.75;;
77417;SDS011;66490;51.484;0.026;2023-06-22T04:57:10;12.07;;;7.30;;
77417;SDS011;66490;51.484;0.026;2023-06-22T04:59:54;12.57;;;7.38;;
77417;SDS011;66490;51.484;0.026;2023-06-22T05:02:38;13.82;;;7.45;;
77417;SDS011;66490;51.484;0.026;2023-06-22T05:05:23;11.63;;;6.75;;
77417;SDS011;66490;51.484;0.026;2023-06-22T05:08:07;11.43;;;7.30;;
77417;SDS011;66490;51.484;0.026;2023-06-22T05:10:53;14.07;;;7.80;;
77417;SDS011;66490;51.484;0.026;2023-06-22T05:13:37;12.48;;;8.00;;
77417;SDS011;66490;51.484;0.026;2023-06-22T05:16:21;13.38;;;7.85;;
77417;SDS011;66490;51.484;0.026;2023-06-22T05:19:08;11.88;;;6.72;;
77417;SDS011;66490;51.484;0.026;2023-06-22T05:21:52;13.32;;;8.18;;
77417;SDS011;66490;51.484;0.026;2023-06-22T05:24:36;12.20;;;6.53;;
77417;SDS011;66490;51.484;0.026;2023-06-22T05:27:20;12.82;;;7.35;;
77417;SDS011;66490;51.484;0.026;2023-06-22T05:30:04;13.73;;;7.47;;
77417;SDS011;66490;51.484;0.026;2023-06-22T05:32:48;14.07;;;7.32;;
77417;SDS011;66490;51.484;0.026;2023-06-22T05:35:32;13.50;;;8.18;;
77417;SDS011;66490;51.484;0.026;2023-06-22T05:38:16;13.60;;;7.40;;
77417;SDS011;66490;51.484;0.026;2023-06-22T05:41:00;16.05;;;7.20;;
77417;SDS011;66490;51.484;0.026;2023-06-22T05:43:44;14.30;;;7.18;;
77417;SDS011;66490;51.484;0.026;2023-06-22T05:46:28;12.30;;;6.57;;
77417;SDS011;66490;51.484;0.026;2023-06-22T05:49:12;11.68;;;6.85;;
77417;SDS011;66490;51.484;0.026;2023-06-22T05:51:56;14.93;;;7.10;;
77417;SDS011;66490;51.484;0.026;2023-06-22T05:54:40;14.45;;;7.05;;
77417;SDS011;66490;51.484;0.026;2023-06-22T05:57:25;12.52;;;6.45;;
77417;SDS011;66490;51.484;0.026;2023-06-22T06:00:09;13.32;;;7.47;;
77417;SDS011;66490;51.484;0.026;2023-06-22T06:02:56;13.90;;;7.35;;
77417;SDS011;66490;51.484;0.026;2023-06-22T06:05:40;12.17;;;7.20;;
77417;SDS011;66490;51.484;0.026;2023-06-22T06:08:24;13.13;;;7.55;;
77417;SDS011;66490;51.484;0.026;2023-06-22T06:11:08;15.18;;;7.75;;
77417;SDS011;66490;51.484;0.026;2023-06-22T06:13:52;14.73;;;6.75;;
77417;SDS011;66490;51.484;0.026;2023-06-22T06:16:36;13.45;;;7.45;;
77417;SDS011;66490;51.484;0.026;2023-06-22T06:19:20;15.43;;;6.93;;
77417;SDS011;66490;51.484;0.026;2023-06-22T06:22:04;12.30;;;7.85;;
77417;SDS011;66490;51.484;0.026;2023-06-22T06:24:51;13.63;;;7.57;;
77417;SDS011;66490;51.484;0.026;2023-06-22T06:27:43;11.70;;;6.63;;
77417;SDS011;66490;51.484;0.026;2023-06-22T06:30:27;13.05;;;7.78;;
77417;SDS011;66490;51.484;0.026;2023-06-22T06:33:11;14.53;;;6.83;;
77417;SDS011;66490;51.484;0.026;2023-06-22T06:35:55;14.00;;;7.63;;
77417;SDS011;66490;51.484;0.026;2023-06-22T06:38:40;12.57;;;7.20;;
77417;SDS011;66490;51.484;0.026;2023-06-22T06:41:24;15.50;;;8.27;;
77417;SDS011;66490;51.484;0.026;2023-06-22T06:44:08;12.30;;;7.45;;
77417;SDS011;66490;51.484;0.026;2023-06-22T06:46:52;13.80;;;7.00;;
77417;SDS011;66490;51.484;0.026;2023-06-22T06:49:38;10.82;;;7.75;;
77417;SDS011;66490;51.484;0.026;2023-06-22T06:52:22;14.63;;;8.10;;
77417;SDS011;66490;51.484;0.026;2023-06-22T06:55:06;12.57;;;7.32;;
77417;SDS011;66490;51.484;0.026;2023-06-22T06:57:52;13.82;;;7.85;;
77417;SDS011;66490;51.484;0.026;2023-06-22T07:00:36;14.93;;;8.03;;
77417;SDS011;66490;51.484;0.026;2023-06-22T07:03:20;12.15;;;7.90;;
77417;SDS011;66490;51.484;0.026;2023-06-22T07:06:04;11.98;;;6.78;;
77417;SDS011;66490;51.484;0.026;2023-06-22T07:08:48;15.45;;;8.00;;
77417;SDS011;66490;51.484;0.026;2023-06-22T07:11:33;13.10;;;7.53;;
77417;SDS011;66490;51.484;0.026;2023-06-22T07:14:17;13.53;;;8.03;;
77417;SDS011;66490;51.484;0.026;2023-06-22T07:17:01;17.17;;;7.50;;
77417;SDS011;66490;51.484;0.026;2023-06-22T07:19:45;13.43;;;7.68;;
77417;SDS011;66490;51.484;0.026;2023-06-22T07:22:29;14.93;;;8.07;;
77417;SDS011;66490;51.484;0.026;2023-06-22T07:25:13;15.60;;;8.05;;
77417;SDS011;66490;51.484;0.026;2023-06-22T07:27:59;11.50;;;7.03;;
77417;SDS011;66490;51.484;0.026;2023-06-22T07:30:44;14.60;;;8.02;;
77417;SDS011;66490;51.484;0.026;2023-06-22T07:33:29;15.60;;;8.35;;
77417;SDS011;66490;51.484;0.026;2023-06-22T07:36:13;14.25;;;7.97;;
77417;SDS011;66490;51.484;0.026;2023-06-22T07:38:57;10.88;;;7.07;;
77417;SDS011;66490;51.484;0.026;2023-06-22T07:41:41;14.17;;;8.00;;
77417;SDS011;66490;51.484;0.026;2023-06-22T07:44:28;13.82;;;6.85;;
77417;SDS011;66490;51.484;0.026;2023-06-22T07:47:12;14.25;;;7.95;;
77417;SDS011;66490;51.484;0.026;2023-06-22T07:49:58;16.27;;;8.07;;
77417;SDS011;66490;51.484;0.026;2023-06-22T07:52:44;16.17;;;8.32;;
77417;SDS011;66490;51.484;0.026;2023-06-22T07:55:33;13.50;;;7.57;;
77417;SDS011;66490;51.484;0.026;2023-06-22T07:58:17;16.45;;;8.25;;
77417;SDS011;66490;51.484;0.026;2023-06-22T08:01:02;15.00;;;7.25;;
77417;SDS011;66490;51.484;0.026;2023-06-22T08:03:48;12.85;;;6.72;;
77417;SDS011;66490;51.484;0.026;2023-06-22T08:06:33;16.42;;;8.13;;
77417;SDS011;66490;51.484;0.026;2023-06-22T08:09:18;11.83;;;6.87;;
77417;SDS011;66490;51.484;0.026;2023-06-22T08:12:02;12.40;;;7.03;;
77417;SDS011;66490;51.484;0.026;2023-06-22T08:14:46;15.13;;;8.00;;
77417;SDS011;66490;51.484;0.026;2023-06-22T08:17:30;14.23;;;8.02;;
77417;SDS011;66490;51.484;0.026;2023-06-22T08:20:15;11.60;;;6.82;;
77417;SDS011;66490;51.484;0.026;2023-06-22T08:22:59;12.73;;;6.60;;
77417;SDS011;66490;51.484;0.026;2023-06-22T08:25:49;13.63;;;6.72;;
77417;SDS011;66490;51.484;0.026;2023-06-22T08:28:33;13.13;;;7.15;;
77417;SDS011;66490;51.484;0.026;2023-06-22T08:31:18;14.02;;;7.60;;
77417;SDS011;66490;51.484;0.026;2023-06-22T08:34:02;12.98;;;7.35;;
77417;SDS011;66490;51.484;0.026;2023-06-22T08:36:45;13.90;;;6.43;;
77417;SDS011;66490;51.484;0.026;2023-06-22T08:39:35;15.35;;;7.25;;
77417;SDS011;66490;51.484;0.026;2023-06-22T08:42:19;11.48;;;5.70;;
77417;SDS011;66490;51.484;0.026;2023-06-22T08:45:03;12.55;;;5.50;;
77417;SDS011;66490;51.484;0.026;2023-06-22T08:47:46;10.23;;;5.70;;
77417;SDS011;66490;51.484;0.026;2023-06-22T08:50:30;14.00;;;6.37;;
77417;SDS011;66490;51.484;0.026;2023-06-22T08:53:14;12.85;;;6.85;;
77417;SDS011;66490;51.484;0.026;2023-06-22T08:55:58;12.82;;;6.90;;
77417;SDS011;66490;51.484;0.026;2023-06-22T08:58:42;10.95;;;6.05;;
77417;SDS011;66490;51.484;0.026;2023-06-22T09:01:27;12.57;;;7.07;;
77417;SDS011;66490;51.484;0.026;2023-06-22T09:04:11;14.60;;;6.10;;
77417;SDS011;66490;51.484;0.026;2023-06-22T09:07:00;10.30;;;5.22;;
77417;SDS011;66490;51.484;0.026;2023-06-22T09:09:45;9.27;;;5.45;;
77417;SDS011;66490;51.484;0.026;2023-06-22T09:12:34;9.05;;;5.40;;
77417;SDS011;66490;51.484;0.026;2023-06-22T09:15:21;10.00;;;5.90;;
77417;SDS011;66490;51.484;0.026;2023-06-22T09:18:05;10.23;;;6.50;;
77417;SDS011;66490;51.484;0.026;2023-06-22T09:20:49;9.25;;;5.13;;
77417;SDS011;66490;51.484;0.026;2023-06-22T09:23:34;8.05;;;5.10;;
77417;SDS011;66490;51.484;0.026;2023-06-22T09:26:18;9.95;;;5.78;;
77417;SDS011;66490;51.484;0.026;2023-06-22T09:29:04;7.97;;;4.85;;
77417;SDS011;66490;51.484;0.026;2023-06-22T09:31:51;9.03;;;4.60;;
77417;SDS011;66490;51.484;0.026;2023-06-22T09:34:38;10.55;;;5.72;;
77417;SDS011;66490;51.484;0.026;2023-06-22T09:37:22;9.60;;;4.47;;
77417;SDS011;66490;51.484;0.026;2023-06-22T09:40:06;8.38;;;4.25;;
77417;SDS011;66490;51.484;0.026;2023-06-22T09:42:55;8.00;;;4.05;;
77417;SDS011;66490;51.484;0.026;2023-06-22T09:45:42;7.57;;;3.53;;
77417;SDS011;66490;51.484;0.026;2023-06-22T09:48:26;8.23;;;4.10;;
77417;SDS011;66490;51.484;0.026;2023-06-22T09:51:11;9.60;;;4.72;;
77417;SDS011;66490;51.484;0.026;2023-06-22T09:53:58;9.07;;;4.78;;
77417;SDS011;66490;51.484;0.026;2023-06-22T09:56:42;9.40;;;4.80;;
77417;SDS011;66490;51.484;0.026;2023-06-22T09:59:26;10.10;;;4.40;;
77417;SDS011;66490;51.484;0.026;2023-06-22T10:02:10;9.00;;;4.45;;
77417;SDS011;66490;51.484;0.026;2023-06-22T10:04:54;8.25;;;5.10;;
77417;SDS011;66490;51.484;0.026;2023-06-22T10:07:38;9.05;;;5.10;;
77417;SDS011;66490;51.484;0.026;2023-06-22T10:10:27;9.63;;;5.30;;
77417;SDS011;66490;51.484;0.026;2023-06-22T10:13:14;7.70;;;4.20;;
77417;SDS011;66490;51.484;0.026;2023-06-22T10:15:59;8.93;;;4.95;;
77417;SDS011;66490;51.484;0.026;2023-06-22T10:18:42;7.18;;;4.35;;
77417;SDS011;66490;51.484;0.026;2023-06-22T10:21:26;10.27;;;4.97;;
77417;SDS011;66490;51.484;0.026;2023-06-22T10:24:12;8.52;;;4.00;;
77417;SDS011;66490;51.484;0.026;2023-06-22T10:26:59;8.10;;;4.33;;
77417;SDS011;66490;51.484;0.026;2023-06-22T10:29:44;9.00;;;3.95;;
77417;SDS011;66490;51.484;0.026;2023-06-22T10:32:27;7.80;;;3.67;;
77417;SDS011;66490;51.484;0.026;2023-06-22T10:35:12;8.10;;;3.50;;
77417;SDS011;66490;51.484;0.026;2023-06-22T10:38:02;8.57;;;3.88;;
77417;SDS011;66490;51.484;0.026;2023-06-22T10:40:47;6.77;;;3.30;;
77417;SDS011;66490;51.484;0.026;2023-06-22T10:43:33;5.90;;;3.20;;
77417;SDS011;66490;51.484;0.026;2023-06-22T10:46:17;7.80;;;3.55;;
77417;SDS011;66490;51.484;0.026;2023-06-22T10:49:02;6.72;;;3.55;;
77417;SDS011;66490;51.484;0.026;2023-06-22T10:51:46;6.85;;;3.65;;
77417;SDS011;66490;51.484;0.026;2023-06-22T10:54:30;9.80;;;3.27;;
77417;SDS011;66490;51.484;0.026;2023-06-22T10:57:17;7.07;;;3.63;;
77417;SDS011;66490;51.484;0.026;2023-06-22T11:00:01;8.35;;;4.07;;
77417;SDS011;66490;51.484;0.026;2023-06-22T11:02:48;8.25;;;3.47;;
77417;SDS011;66490;51.484;0.026;2023-06-22T11:05:35;7.32;;;4.00;;
77417;SDS011;66490;51.484;0.026;2023-06-22T11:08:19;9.50;;;3.60;;
77417;SDS011;66490;51.484;0.026;2023-06-22T11:11:03;6.63;;;3.53;;
77417;SDS011;66490;51.484;0.026;2023-06-22T11:13:47;12.27;;;4.45;;
77417;SDS011;66490;51.484;0.026;2023-06-22T11:16:31;8.07;;;3.67;;
77417;SDS011;66490;51.484;0.026;2023-06-22T11:19:15;7.63;;;3.95;;
77417;SDS011;66490;51.484;0.026;2023-06-22T11:21:59;6.30;;;3.10;;
77417;SDS011;66490;51.484;0.026;2023-06-22T11:24:43;8.15;;;3.85;;
77417;SDS011;66490;51.484;0.026;2023-06-22T11:27:30;9.02;;;3.72;;
77417;SDS011;66490;51.484;0.026;2023-06-22T11:30:14;5.90;;;3.30;;
77417;SDS011;66490;51.484;0.026;2023-06-22T11:32:58;8.05;;;3.50;;
77417;SDS011;66490;51.484;0.026;2023-06-22T11:35:42;6.17;;;3.37;;
77417;SDS011;66490;51.484;0.026;2023-06-22T11:38:26;8.55;;;3.00;;
77417;SDS011;66490;51.484;0.026;2023-06-22T11:41:10;7.93;;;3.60;;
77417;SDS011;66490;51.484;0.026;2023-06-22T11:43:54;6.63;;;3.50;;
77417;SDS011;66490;51.484;0.026;2023-06-22T11:46:38;7.40;;;3.58;;
77417;SDS011;66490;51.484;0.026;2023-06-22T11:49:22;7.10;;;3.37;;
77417;SDS011;66490;51.484;0.026;2023-06-22T11:52:06;6.00;;;3.33;;
77417;SDS011;66490;51.484;0.026;2023-06-22T11:54:50;5.82;;;3.30;;
77417;SDS011;66490;51.484;0.026;2023-06-22T11:57:36;6.43;;;3.00;;
77417;SDS011;66490;51.484;0.026;2023-06-22T12:00:20;7.28;;;3.78;;
77417;SDS011;66490;51.484;0.026;2023-06-22T12:03:07;6.13;;;3.20;;
77417;SDS011;66490;51.484;0.026;2023-06-22T12:05:51;6.55;;;2.53;;
77417;SDS011;66490;51.484;0.026;2023-06-22T12:08:42;4.70;;;2.72;;
77417;SDS011;66490;51.484;0.026;2023-06-22T12:11:26;6.22;;;2.78;;
77417;SDS011;66490;51.484;0.026;2023-06-22T12:14:10;5.20;;;2.45;;
77417;SDS011;66490;51.484;0.026;2023-06-22T12:16:54;5.37;;;2.30;;
77417;SDS011;66490;51.484;0.026;2023-06-22T12:19:38;5.63;;;3.00;;
77417;SDS011;66490;51.484;0.026;2023-06-22T12:22:22;5.93;;;3.13;;
77417;SDS011;66490;51.484;0.026;2023-06-22T12:25:06;7.35;;;2.75;;
77417;SDS011;66490;51.484;0.026;2023-06-22T12:27:50;4.35;;;2.13;;
77417;SDS011;66490;51.484;0.026;2023-06-22T12:30:34;6.17;;;2.60;;
77417;SDS011;66490;51.484;0.026;2023-06-22T12:33:18;7.60;;;3.40;;
77417;SDS011;66490;51.484;0.026;2023-06-22T12:36:03;7.30;;;3.65;;
77417;SDS011;66490;51.484;0.026;2023-06-22T12:38:48;5.03;;;3.15;;
77417;SDS011;66490;51.484;0.026;2023-06-22T12:41:32;6.65;;;2.92;;
77417;SDS011;66490;51.484;0.026;2023-06-22T12:44:16;6.53;;;2.63;;
77417;SDS011;66490;51.484;0.026;2023-06-22T12:47:01;7.65;;;3.03;;
77417;SDS011;66490;51.484;0.026;2023-06-22T12:49:45;8.50;;;3.40;;
77417;SDS011;66490;51.484;0.026;2023-06-22T12:52:32;6.28;;;2.80;;
77417;SDS011;66490;51.484;0.026;2023-06-22T12:55:16;8.05;;;3.13;;
77417;SDS011;66490;51.484;0.026;2023-06-22T12:58:03;4.43;;;2.40;;
77417;SDS011;66490;51.484;0.026;2023-06-22T13:00:48;4.75;;;2.80;;
77417;SDS011;66490;51.484;0.026;2023-06-22T13:03:32;6.03;;;3.40;;
77417;SDS011;66490;51.484;0.026;2023-06-22T13:06:16;5.25;;;2.55;;
77417;SDS011;66490;51.484;0.026;2023-06-22T13:09:01;6.03;;;2.72;;
77417;SDS011;66490;51.484;0.026;2023-06-22T13:11:45;4.73;;;2.43;;
77417;SDS011;66490;51.484;0.026;2023-06-22T13:14:34;6.25;;;2.38;;
77417;SDS011;66490;51.484;0.026;2023-06-22T13:17:21;4.47;;;2.58;;
77417;SDS011;66490;51.484;0.026;2023-06-22T13:20:06;5.45;;;2.13;;
77417;SDS011;66490;51.484;0.026;2023-06-22T13:22:50;6.05;;;3.03;;
77417;SDS011;66490;51.484;0.026;2023-06-22T13:25:34;5.17;;;2.50;;
77417;SDS011;66490;51.484;0.026;2023-06-22T13:28:18;6.00;;;2.60;;
77417;SDS011;66490;51.484;0.026;2023-06-22T13:31:04;5.32;;;2.50;;
77417;SDS011;66490;51.484;0.026;2023-06-22T13:33:48;6.57;;;2.25;;
77417;SDS011;66490;51.484;0.026;2023-06-22T13:36:32;6.20;;;2.78;;
77417;SDS011;66490;51.484;0.026;2023-06-22T13:39:16;5.27;;;2.50;;
77417;SDS011;66490;51.484;0.026;2023-06-22T13:42:00;4.82;;;2.33;;
77417;SDS011;66490;51.484;0.026;2023-06-22T13:44:45;5.28;;;2.80;;
77417;SDS011;66490;51.484;0.026;2023-06-22T13:47:29;7.45;;;2.47;;
77417;SDS011;66490;51.484;0.026;2023-06-22T13:50:14;5.50;;;2.95;;
77417;SDS011;66490;51.484;0.026;2023-06-22T13:52:57;7.60;;;2.60;;
77417;SDS011;66490;51.484;0.026;2023-06-22T13:55:41;4.78;;;2.30;;
77417;SDS011;66490;51.484;0.026;2023-06-22T13:58:26;6.20;;;2.60;;
77417;SDS011;66490;51.484;0.026;2023-06-22T14:01:11;5.93;;;3.17;;
77417;SDS011;66490;51.484;0.026;2023-06-22T14:03:55;5.40;;;2.45;;
77417;SDS011;66490;51.484;0.026;2023-06-22T14:06:39;6.10;;;2.87;;
77417;SDS011;66490;51.484;0.026;2023-06-22T14:09:23;8.48;;;3.00;;
77417;SDS011;66490;51.484;0.026;2023-06-22T14:12:10;7.53;;;3.38;;
77417;SDS011;66490;51.484;0.026;2023-06-22T14:14:57;5.55;;;2.50;;
77417;SDS011;66490;51.484;0.026;2023-06-22T14:17:41;4.70;;;2.72;;
77417;SDS011;66490;51.484;0.026;2023-06-22T14:20:25;6.77;;;2.40;;
77417;SDS011;66490;51.484;0.026;2023-06-22T14:23:09;5.78;;;2.55;;
77417;SDS011;66490;51.484;0.026;2023-06-22T14:25:54;5.90;;;2.78;;
77417;SDS011;66490;51.484;0.026;2023-06-22T14:28:38;9.20;;;2.70;;
77417;SDS011;66490;51.484;0.026;2023-06-22T14:31:22;4.70;;;2.40;;
77417;SDS011;66490;51.484;0.026;2023-06-22T14:34:06;6.60;;;2.73;;
77417;SDS011;66490;51.484;0.026;2023-06-22T14:36:52;5.50;;;2.20;;
77417;SDS011;66490;51.484;0.026;2023-06-22T14:39:36;6.15;;;2.42;;
77417;SDS011;66490;51.484;0.026;2023-06-22T14:42:20;4.28;;;2.30;;
77417;SDS011;66490;51.484;0.026;2023-06-22T14:45:05;6.78;;;2.45;;
77417;SDS011;66490;51.484;0.026;2023-06-22T14:47:50;4.27;;;2.50;;
77417;SDS011;66490;51.484;0.026;2023-06-22T14:50:38;4.45;;;2.13;;
77417;SDS011;66490;51.484;0.026;2023-06-22T14:53:22;4.35;;;2.33;;
77417;SDS011;66490;51.484;0.026;2023-06-22T14:56:07;5.38;;;2.30;;
77417;SDS011;66490;51.484;0.026;2023-06-22T14:58:51;5.05;;;2.55;;
77417;SDS011;66490;51.484;0.026;2023-06-22T15:01:40;5.80;;;2.80;;
77417;SDS011;66490;51.484;0.026;2023-06-22T15:04:26;4.70;;;2.35;;
77417;SDS011;66490;51.484;0.026;2023-06-22T15:07:18;5.35;;;2.38;;
77417;SDS011;66490;51.484;0.026;2023-06-22T15:10:03;5.55;;;2.47;;
77417;SDS011;66490;51.484;0.026;2023-06-22T15:12:48;4.70;;;2.22;;
77417;SDS011;66490;51.484;0.026;2023-06-22T15:15:32;4.77;;;2.30;;
77417;SDS011;66490;51.484;0.026;2023-06-22T15:18:17;6.47;;;2.63;;
77417;SDS011;66490;51.484;0.026;2023-06-22T15:21:02;6.68;;;2.90;;
77417;SDS011;66490;51.484;0.026;2023-06-22T15:23:52;5.13;;;2.40;;
77417;SDS011;66490;51.484;0.026;2023-06-22T15:26:36;5.43;;;2.63;;
77417;SDS011;66490;51.484;0.026;2023-06-22T15:29:20;4.83;;;2.17;;
77417;SDS011;66490;51.484;0.026;2023-06-22T15:32:04;6.40;;;2.40;;
77417;SDS011;66490;51.484;0.026;2023-06-22T15:34:52;5.35;;;2.35;;
77417;SDS011;66490;51.484;0.026;2023-06-22T15:37:39;4.65;;;2.30;;
77417;SDS011;66490;51.484;0.026;2023-06-22T15:40:23;6.60;;;3.08;;
77417;SDS011;66490;51.484;0.026;2023-06-22T15:43:09;5.33;;;1.83;;
77417;SDS011;66490;51.484;0.026;2023-06-22T15:45:54;4.65;;;2.13;;
77417;SDS011;66490;51.484;0.026;2023-06-22T15:48:39;5.53;;;2.60;;
77417;SDS011;66490;51.484;0.026;2023-06-22T15:51:26;6.03;;;2.30;;
77417;SDS011;66490;51.484;0.026;2023-06-22T15:54:14;4.85;;;2.45;;
77417;SDS011;66490;51.484;0.026;2023-06-22T15:57:08;4.33;;;2.33;;
77417;SDS011;66490;51.484;0.026;2023-06-22T15:59:57;4.53;;;2.25;;
77417;SDS011;66490;51.484;0.026;2023-06-22T16:02:41;5.53;;;2.60;;
77417;SDS011;66490;51.484;0.026;2023-06-22T16:05:29;6.22;;;2.40;;
77417;SDS011;66490;51.484;0.026;2023-06-22T16:08:15;4.97;;;2.63;;
77417;SDS011;66490;51.484;0.026;2023-06-22T16:10:59;7.07;;;2.50;;
77417;SDS011;66490;51.484;0.026;2023-06-22T16:13:45;5.82;;;2.33;;
77417;SDS011;66490;51.484;0.026;2023-06-22T16:16:29;6.50;;;2.75;;
77417;SDS011;66490;51.484;0.026;2023-06-22T16:19:13;6.40;;;3.03;;
77417;SDS011;66490;51.484;0.026;2023-06-22T16:21:58;6.45;;;2.65;;
77417;SDS011;66490;51.484;0.026;2023-06-22T16:24:42;5.60;;;2.70;;
77417;SDS011;66490;51.484;0.026;2023-06-22T16:27:30;5.28;;;2.70;;
77417;SDS011;66490;51.484;0.026;2023-06-22T16:30:15;15.85;;;3.53;;